sensor_id;sensor_type;location;lat;lon;timestamp;pressure;altitude;pressure_sealevel;temperature
60003;BMP280;46322;52.018;8.702;2023-04-03T00:02:48;101677.00;;;10.65
60003;BMP280;46322;52.018;8.702;2023-04-03T00:07:48;101678.81;;;10.41
60003;BMP280;46322;52.018;8.702;2023-04-03T00:12:48;101675.78;;;11.10
60003;BMP280;46322;52.018;8.702;2023-04-03T00:17:49;101688.72;;;10.93
60003;BMP280;46322;52.018;8.702;2023-04-03T00:22:49;101691.53;;;10.78
60003;BMP280;46322;52.018;8.702;2023-04-03T00:27:49;101696.56;;;10.74
60003;BMP280;46322;52.018;8.702;2023-04-03T00:32:49;101702.19;;;11.44
60003;BMP280;46322;52.018;8.702;2023-04-03T00:37:53;101705.41;;;12.54
60003;BMP280;46322;52.018;8.702;2023-04-03T00:42:55;101715.25;;;11.41
60003;BMP280;46322;52.018;8.702;2023-04-03T00:47:56;101714.72;;;10.23
60003;BMP280;46322;52.018;8.702;2023-04-03T00:52:56;101712.81;;;10.34
60003;BMP280;46322;52.018;8.702;2023-04-03T00:57:57;101710.63;;;10.46
60003;BMP280;46322;52.018;8.702;2023-04-03T01:02:58;101708.56;;;10.38
60003;BMP280;46322;52.018;8.702;2023-04-03T01:07:58;101718.31;;;10.76
60003;BMP280;46322;52.018;8.702;2023-04-03T01:12:58;101723.84;;;11.57
60003;BMP280;46322;52.018;8.702;2023-04-03T01:17:59;101713.03;;;12.23
60003;BMP280;46322;52.018;8.702;2023-04-03T01:28:10;101719.19;;;12.24
60003;BMP280;46322;52.018;8.702;2023-04-03T01:33:10;101719.72;;;11.64
60003;BMP280;46322;52.018;8.702;2023-04-03T01:38:10;101717.84;;;12.07
60003;BMP280;46322;52.018;8.702;2023-04-03T01:43:11;101723.84;;;11.57
60003;BMP280;46322;52.018;8.702;2023-04-03T01:48:11;101723.78;;;11.38
60003;BMP280;46322;52.018;8.702;2023-04-03T01:53:11;101729.91;;;11.57
60003;BMP280;46322;52.018;8.702;2023-04-03T01:58:11;101736.09;;;10.76
60003;BMP280;46322;52.018;8.702;2023-04-03T02:03:11;101729.41;;;10.83
60003;BMP280;46322;52.018;8.702;2023-04-03T02:08:11;101728.41;;;10.40
60003;BMP280;46322;52.018;8.702;2023-04-03T02:13:11;101720.09;;;10.13
60003;BMP280;46322;52.018;8.702;2023-04-03T02:18:12;101724.38;;;9.49
60003;BMP280;46322;52.018;8.702;2023-04-03T02:23:12;101721.28;;;10.70
60003;BMP280;46322;52.018;8.702;2023-04-03T02:28:12;101724.16;;;10.44
60003;BMP280;46322;52.018;8.702;2023-04-03T02:33:12;101723.47;;;10.23
60003;BMP280;46322;52.018;8.702;2023-04-03T02:38:12;101733.38;;;10.47
60003;BMP280;46322;52.018;8.702;2023-04-03T02:43:12;101729.19;;;9.06
60003;BMP280;46322;52.018;8.702;2023-04-03T02:48:12;101732.34;;;9.24
60003;BMP280;46322;52.018;8.702;2023-04-03T02:53:13;101739.84;;;10.70
60003;BMP280;46322;52.018;8.702;2023-04-03T02:58:13;101736.53;;;11.36
60003;BMP280;46322;52.018;8.702;2023-04-03T03:03:13;101734.81;;;9.90
60003;BMP280;46322;52.018;8.702;2023-04-03T03:08:13;101735.91;;;10.28
60003;BMP280;46322;52.018;8.702;2023-04-03T03:13:13;101733.19;;;9.04
60003;BMP280;46322;52.018;8.702;2023-04-03T03:18:13;101737.06;;;9.47
60003;BMP280;46322;52.018;8.702;2023-04-03T03:23:13;101737.16;;;9.01
60003;BMP280;46322;52.018;8.702;2023-04-03T03:28:13;101747.47;;;8.98
60003;BMP280;46322;52.018;8.702;2023-04-03T03:33:14;101744.03;;;8.72
60003;BMP280;46322;52.018;8.702;2023-04-03T03:38:14;101742.44;;;9.12
60003;BMP280;46322;52.018;8.702;2023-04-03T03:43:14;101747.59;;;10.22
60003;BMP280;46322;52.018;8.702;2023-04-03T03:48:14;101752.47;;;8.54
60003;BMP280;46322;52.018;8.702;2023-04-03T03:53:15;101755.44;;;9.93
60003;BMP280;46322;52.018;8.702;2023-04-03T03:58:15;101747.56;;;8.05
60003;BMP280;46322;52.018;8.702;2023-04-03T04:03:15;101754.34;;;10.48
60003;BMP280;46322;52.018;8.702;2023-04-03T04:08:15;101762.00;;;8.55
60003;BMP280;46322;52.018;8.702;2023-04-03T04:13:15;101756.19;;;8.83
60003;BMP280;46322;52.018;8.702;2023-04-03T04:18:16;101767.59;;;8.73
60003;BMP280;46322;52.018;8.702;2023-04-03T04:23:16;101766.44;;;8.49
60003;BMP280;46322;52.018;8.702;2023-04-03T04:28:17;101771.66;;;8.19
60003;BMP280;46322;52.018;8.702;2023-04-03T04:33:17;101772.06;;;8.68
60003;BMP280;46322;52.018;8.702;2023-04-03T04:38:17;101776.81;;;10.07
60003;BMP280;46322;52.018;8.702;2023-04-03T04:43:17;101777.63;;;8.87
60003;BMP280;46322;52.018;8.702;2023-04-03T04:48:17;101785.81;;;8.85
60003;BMP280;46322;52.018;8.702;2023-04-03T04:53:18;101782.03;;;9.62
60003;BMP280;46322;52.018;8.702;2023-04-03T04:58:18;101773.63;;;8.54
60003;BMP280;46322;52.018;8.702;2023-04-03T05:03:18;101787.84;;;8.32
60003;BMP280;46322;52.018;8.702;2023-04-03T05:08:18;101793.44;;;10.27
60003;BMP280;46322;52.018;8.702;2023-04-03T05:13:18;101804.59;;;9.24
60003;BMP280;46322;52.018;8.702;2023-04-03T05:18:19;101806.19;;;8.80
60003;BMP280;46322;52.018;8.702;2023-04-03T05:23:19;101797.84;;;8.30
60003;BMP280;46322;52.018;8.702;2023-04-03T05:28:19;101802.44;;;9.57
60003;BMP280;46322;52.018;8.702;2023-04-03T05:33:19;101815.72;;;9.16
60003;BMP280;46322;52.018;8.702;2023-04-03T05:38:19;101819.56;;;9.90
60003;BMP280;46322;52.018;8.702;2023-04-03T05:43:20;101831.06;;;8.94
60003;BMP280;46322;52.018;8.702;2023-04-03T05:48:20;101833.41;;;8.80
60003;BMP280;46322;52.018;8.702;2023-04-03T05:53:29;101845.22;;;10.98
60003;BMP280;46322;52.018;8.702;2023-04-03T05:58:30;101846.31;;;9.88
60003;BMP280;46322;52.018;8.702;2023-04-03T06:03:31;101848.13;;;10.57
60003;BMP280;46322;52.018;8.702;2023-04-03T06:08:31;101847.09;;;9.99
60003;BMP280;46322;52.018;8.702;2023-04-03T06:13:31;101863.72;;;10.15
60003;BMP280;46322;52.018;8.702;2023-04-03T06:18:31;101862.16;;;10.09
60003;BMP280;46322;52.018;8.702;2023-04-03T06:23:31;101859.84;;;9.72
60003;BMP280;46322;52.018;8.702;2023-04-03T06:28:32;101865.31;;;11.09
60003;BMP280;46322;52.018;8.702;2023-04-03T06:33:32;101868.69;;;10.32
60003;BMP280;46322;52.018;8.702;2023-04-03T06:38:32;101865.69;;;11.56
60003;BMP280;46322;52.018;8.702;2023-04-03T06:43:33;101876.13;;;10.30
60003;BMP280;46322;52.018;8.702;2023-04-03T06:48:33;101872.00;;;11.02
60003;BMP280;46322;52.018;8.702;2023-04-03T06:53:33;101878.13;;;13.16
60003;BMP280;46322;52.018;8.702;2023-04-03T06:58:33;101886.56;;;11.38
60003;BMP280;46322;52.018;8.702;2023-04-03T07:03:33;101895.19;;;11.20
60003;BMP280;46322;52.018;8.702;2023-04-03T07:08:34;101893.59;;;12.25
60003;BMP280;46322;52.018;8.702;2023-04-03T07:13:34;101894.25;;;11.06
60003;BMP280;46322;52.018;8.702;2023-04-03T07:18:34;101908.47;;;10.81
60003;BMP280;46322;52.018;8.702;2023-04-03T07:23:35;101913.50;;;11.27
60003;BMP280;46322;52.018;8.702;2023-04-03T07:28:35;101914.72;;;11.92
60003;BMP280;46322;52.018;8.702;2023-04-03T07:33:35;101931.56;;;10.80
60003;BMP280;46322;52.018;8.702;2023-04-03T07:38:35;101935.16;;;11.39
60003;BMP280;46322;52.018;8.702;2023-04-03T07:43:36;101934.13;;;11.30
60003;BMP280;46322;52.018;8.702;2023-04-03T07:48:36;101944.31;;;12.90
60003;BMP280;46322;52.018;8.702;2023-04-03T07:53:36;101944.34;;;12.04
60003;BMP280;46322;52.018;8.702;2023-04-03T07:58:36;101947.63;;;12.20
60003;BMP280;46322;52.018;8.702;2023-04-03T08:03:37;101954.16;;;11.12
60003;BMP280;46322;52.018;8.702;2023-04-03T08:08:37;101955.28;;;11.45
60003;BMP280;46322;52.018;8.702;2023-04-03T08:13:37;101952.22;;;11.91
60003;BMP280;46322;52.018;8.702;2023-04-03T08:18:38;101953.50;;;12.79
60003;BMP280;46322;52.018;8.702;2023-04-03T08:23:38;101963.75;;;11.76
60003;BMP280;46322;52.018;8.702;2023-04-03T08:28:39;101957.16;;;12.45
60003;BMP280;46322;52.018;8.702;2023-04-03T08:33:39;101954.16;;;13.08
60003;BMP280;46322;52.018;8.702;2023-04-03T08:38:39;101970.88;;;13.27
60003;BMP280;46322;52.018;8.702;2023-04-03T08:43:48;101954.81;;;12.20
60003;BMP280;46322;52.018;8.702;2023-04-03T08:48:51;101957.84;;;12.32
60003;BMP280;46322;52.018;8.702;2023-04-03T08:53:54;101964.75;;;12.94
60003;BMP280;46322;52.018;8.702;2023-04-03T08:58:57;101957.88;;;13.99
60003;BMP280;46322;52.018;8.702;2023-04-03T09:03:57;101947.78;;;13.55
60003;BMP280;46322;52.018;8.702;2023-04-03T09:09:05;101953.28;;;13.13
60003;BMP280;46322;52.018;8.702;2023-04-03T09:14:10;101944.81;;;13.70
60003;BMP280;46322;52.018;8.702;2023-04-03T09:24:18;101942.84;;;14.03
60003;BMP280;46322;52.018;8.702;2023-04-03T09:29:19;101948.13;;;14.45
60003;BMP280;46322;52.018;8.702;2023-04-03T09:34:30;101946.69;;;13.70
60003;BMP280;46322;52.018;8.702;2023-04-03T09:39:32;101940.09;;;14.22
60003;BMP280;46322;52.018;8.702;2023-04-03T09:44:34;101941.66;;;14.10
60003;BMP280;46322;52.018;8.702;2023-04-03T09:49:34;101956.44;;;14.79
60003;BMP280;46322;52.018;8.702;2023-04-03T09:54:36;101934.88;;;14.40
60003;BMP280;46322;52.018;8.702;2023-04-03T09:59:37;101937.13;;;14.60
60003;BMP280;46322;52.018;8.702;2023-04-03T10:04:40;101929.16;;;14.68
60003;BMP280;46322;52.018;8.702;2023-04-03T10:09:40;101937.06;;;17.60
60003;BMP280;46322;52.018;8.702;2023-04-03T10:24:58;101918.22;;;14.70
60003;BMP280;46322;52.018;8.702;2023-04-03T10:30:03;101910.56;;;14.05
60003;BMP280;46322;52.018;8.702;2023-04-03T10:35:16;101912.56;;;14.94
60003;BMP280;46322;52.018;8.702;2023-04-03T10:41:01;101909.19;;;13.80
60003;BMP280;46322;52.018;8.702;2023-04-03T10:51:13;101905.22;;;14.99
60003;BMP280;46322;52.018;8.702;2023-04-03T10:56:18;101910.56;;;16.82
60003;BMP280;46322;52.018;8.702;2023-04-03T11:01:20;101905.75;;;15.41
60003;BMP280;46322;52.018;8.702;2023-04-03T11:06:21;101895.03;;;16.15
60003;BMP280;46322;52.018;8.702;2023-04-03T11:11:24;101906.19;;;17.54
60003;BMP280;46322;52.018;8.702;2023-04-03T11:16:29;101905.13;;;17.46
60003;BMP280;46322;52.018;8.702;2023-04-03T11:21:34;101897.75;;;17.05
60003;BMP280;46322;52.018;8.702;2023-04-03T11:26:38;101892.25;;;16.93
60003;BMP280;46322;52.018;8.702;2023-04-03T11:36:44;101884.31;;;16.41
60003;BMP280;46322;52.018;8.702;2023-04-03T11:41:45;101900.47;;;16.88
60003;BMP280;46322;52.018;8.702;2023-04-03T11:46:52;101886.28;;;17.34
60003;BMP280;46322;52.018;8.702;2023-04-03T11:51:53;101873.38;;;17.98
60003;BMP280;46322;52.018;8.702;2023-04-03T11:56:53;101866.38;;;15.98
60003;BMP280;46322;52.018;8.702;2023-04-03T12:01:56;101865.81;;;16.91
60003;BMP280;46322;52.018;8.702;2023-04-03T12:07:01;101857.34;;;18.11
60003;BMP280;46322;52.018;8.702;2023-04-03T12:12:21;101850.44;;;16.62
60003;BMP280;46322;52.018;8.702;2023-04-03T12:17:23;101853.84;;;17.27
60003;BMP280;46322;52.018;8.702;2023-04-03T12:22:23;101840.47;;;18.55
60003;BMP280;46322;52.018;8.702;2023-04-03T12:43:02;101820.31;;;17.83
60003;BMP280;46322;52.018;8.702;2023-04-03T12:48:03;101824.94;;;18.73
60003;BMP280;46322;52.018;8.702;2023-04-03T12:53:06;101815.16;;;19.05
60003;BMP280;46322;52.018;8.702;2023-04-03T12:58:13;101812.81;;;18.55
60003;BMP280;46322;52.018;8.702;2023-04-03T13:03:24;101802.66;;;18.60
60003;BMP280;46322;52.018;8.702;2023-04-03T13:08:25;101811.63;;;21.26
60003;BMP280;46322;52.018;8.702;2023-04-03T13:13:25;101791.75;;;21.54
60003;BMP280;46322;52.018;8.702;2023-04-03T13:23:29;101784.22;;;20.54
60003;BMP280;46322;52.018;8.702;2023-04-03T13:28:31;101782.97;;;18.81
60003;BMP280;46322;52.018;8.702;2023-04-03T13:33:32;101779.75;;;17.64
60003;BMP280;46322;52.018;8.702;2023-04-03T13:38:33;101776.97;;;19.12
60003;BMP280;46322;52.018;8.702;2023-04-03T13:43:34;101757.63;;;18.94
60003;BMP280;46322;52.018;8.702;2023-04-03T13:48:35;101759.31;;;17.92
60003;BMP280;46322;52.018;8.702;2023-04-03T13:53:41;101757.94;;;17.03
60003;BMP280;46322;52.018;8.702;2023-04-03T13:58:51;101762.78;;;18.38
60003;BMP280;46322;52.018;8.702;2023-04-03T14:03:56;101764.13;;;21.22
60003;BMP280;46322;52.018;8.702;2023-04-03T14:08:57;101759.41;;;23.49
60003;BMP280;46322;52.018;8.702;2023-04-03T14:13:58;101741.06;;;20.03
60003;BMP280;46322;52.018;8.702;2023-04-03T14:18:59;101736.28;;;18.73
60003;BMP280;46322;52.018;8.702;2023-04-03T14:23:59;101744.03;;;22.03
60003;BMP280;46322;52.018;8.702;2023-04-03T14:28:59;101741.72;;;23.58
60003;BMP280;46322;52.018;8.702;2023-04-03T14:33:59;101739.06;;;24.17
60003;BMP280;46322;52.018;8.702;2023-04-03T14:39:00;101729.34;;;22.53
60003;BMP280;46322;52.018;8.702;2023-04-03T14:44:00;101725.75;;;24.66
60003;BMP280;46322;52.018;8.702;2023-04-03T14:49:00;101712.19;;;26.22
60003;BMP280;46322;52.018;8.702;2023-04-03T14:54:00;101710.25;;;24.70
60003;BMP280;46322;52.018;8.702;2023-04-03T14:59:00;101716.94;;;24.87
60003;BMP280;46322;52.018;8.702;2023-04-03T15:04:01;101694.34;;;21.85
60003;BMP280;46322;52.018;8.702;2023-04-03T15:09:01;101712.41;;;19.80
60003;BMP280;46322;52.018;8.702;2023-04-03T15:14:01;101714.97;;;22.79
60003;BMP280;46322;52.018;8.702;2023-04-03T15:19:01;101700.94;;;21.42
60003;BMP280;46322;52.018;8.702;2023-04-03T15:24:02;101705.63;;;22.43
60003;BMP280;46322;52.018;8.702;2023-04-03T15:29:02;101702.22;;;21.71
60003;BMP280;46322;52.018;8.702;2023-04-03T15:34:03;101692.06;;;21.64
60003;BMP280;46322;52.018;8.702;2023-04-03T15:39:03;101701.53;;;22.53
60003;BMP280;46322;52.018;8.702;2023-04-03T15:44:03;101701.06;;;24.96
60003;BMP280;46322;52.018;8.702;2023-04-03T15:49:04;101698.34;;;24.93
60003;BMP280;46322;52.018;8.702;2023-04-03T15:54:04;101687.84;;;23.06
60003;BMP280;46322;52.018;8.702;2023-04-03T15:59:04;101689.56;;;20.21
60003;BMP280;46322;52.018;8.702;2023-04-03T16:04:05;101685.81;;;19.34
60003;BMP280;46322;52.018;8.702;2023-04-03T16:09:05;101683.66;;;18.60
60003;BMP280;46322;52.018;8.702;2023-04-03T16:14:06;101691.56;;;21.17
60003;BMP280;46322;52.018;8.702;2023-04-03T16:19:06;101680.75;;;23.31
60003;BMP280;46322;52.018;8.702;2023-04-03T16:24:06;101682.25;;;20.21
60003;BMP280;46322;52.018;8.702;2023-04-03T16:29:07;101679.66;;;18.42
60003;BMP280;46322;52.018;8.702;2023-04-03T16:34:07;101686.75;;;19.54
60003;BMP280;46322;52.018;8.702;2023-04-03T16:39:07;101684.47;;;20.51
60003;BMP280;46322;52.018;8.702;2023-04-03T16:44:07;101688.59;;;21.41
60003;BMP280;46322;52.018;8.702;2023-04-03T16:49:07;101691.06;;;20.53
60003;BMP280;46322;52.018;8.702;2023-04-03T16:54:07;101678.63;;;21.91
60003;BMP280;46322;52.018;8.702;2023-04-03T16:59:07;101682.38;;;20.60
60003;BMP280;46322;52.018;8.702;2023-04-03T17:04:08;101673.84;;;22.63
60003;BMP280;46322;52.018;8.702;2023-04-03T17:09:08;101670.69;;;20.36
60003;BMP280;46322;52.018;8.702;2023-04-03T17:14:08;101668.19;;;19.49
60003;BMP280;46322;52.018;8.702;2023-04-03T17:19:08;101675.41;;;19.92
60003;BMP280;46322;52.018;8.702;2023-04-03T17:24:09;101663.25;;;17.41
60003;BMP280;46322;52.018;8.702;2023-04-03T17:29:09;101673.06;;;17.70
60003;BMP280;46322;52.018;8.702;2023-04-03T17:34:10;101667.78;;;18.06
60003;BMP280;46322;52.018;8.702;2023-04-03T17:39:10;101675.75;;;16.66
60003;BMP280;46322;52.018;8.702;2023-04-03T17:44:10;101671.53;;;17.48
60003;BMP280;46322;52.018;8.702;2023-04-03T17:49:11;101673.06;;;15.46
60003;BMP280;46322;52.018;8.702;2023-04-03T17:54:11;101679.28;;;16.78
60003;BMP280;46322;52.018;8.702;2023-04-03T17:59:11;101671.91;;;16.46
60003;BMP280;46322;52.018;8.702;2023-04-03T18:04:12;101675.88;;;15.32
60003;BMP280;46322;52.018;8.702;2023-04-03T18:09:16;101669.19;;;16.16
60003;BMP280;46322;52.018;8.702;2023-04-03T18:14:19;101681.41;;;15.36
60003;BMP280;46322;52.018;8.702;2023-04-03T18:19:20;101676.50;;;15.12
60003;BMP280;46322;52.018;8.702;2023-04-03T18:24:20;101683.13;;;15.41
60003;BMP280;46322;52.018;8.702;2023-04-03T18:29:20;101677.66;;;16.27
60003;BMP280;46322;52.018;8.702;2023-04-03T18:34:21;101681.81;;;14.55
60003;BMP280;46322;52.018;8.702;2023-04-03T18:39:21;101683.94;;;13.69
60003;BMP280;46322;52.018;8.702;2023-04-03T18:44:22;101695.22;;;14.64
60003;BMP280;46322;52.018;8.702;2023-04-03T18:49:23;101695.03;;;15.26
60003;BMP280;46322;52.018;8.702;2023-04-03T18:54:23;101698.91;;;15.03
60003;BMP280;46322;52.018;8.702;2023-04-03T18:59:23;101702.47;;;14.72
60003;BMP280;46322;52.018;8.702;2023-04-03T19:04:24;101689.53;;;14.03
60003;BMP280;46322;52.018;8.702;2023-04-03T19:09:25;101706.47;;;13.99
60003;BMP280;46322;52.018;8.702;2023-04-03T19:14:25;101704.19;;;13.92
60003;BMP280;46322;52.018;8.702;2023-04-03T19:19:25;101697.50;;;14.57
60003;BMP280;46322;52.018;8.702;2023-04-03T19:24:25;101695.88;;;14.16
60003;BMP280;46322;52.018;8.702;2023-04-03T19:29:25;101692.97;;;14.57
60003;BMP280;46322;52.018;8.702;2023-04-03T19:34:26;101687.25;;;13.38
60003;BMP280;46322;52.018;8.702;2023-04-03T19:39:26;101690.94;;;14.32
60003;BMP280;46322;52.018;8.702;2023-04-03T19:44:26;101686.19;;;12.98
60003;BMP280;46322;52.018;8.702;2023-04-03T19:49:26;101691.94;;;13.69
60003;BMP280;46322;52.018;8.702;2023-04-03T19:54:27;101698.53;;;13.22
60003;BMP280;46322;52.018;8.702;2023-04-03T19:59:27;101688.38;;;13.10
60003;BMP280;46322;52.018;8.702;2023-04-03T20:04:27;101698.00;;;13.83
60003;BMP280;46322;52.018;8.702;2023-04-03T20:09:27;101702.38;;;13.43
60003;BMP280;46322;52.018;8.702;2023-04-03T20:14:27;101700.75;;;13.56
60003;BMP280;46322;52.018;8.702;2023-04-03T20:19:27;101698.69;;;13.39
60003;BMP280;46322;52.018;8.702;2023-04-03T20:24:27;101687.28;;;12.70
60003;BMP280;46322;52.018;8.702;2023-04-03T20:29:28;101696.25;;;12.88
60003;BMP280;46322;52.018;8.702;2023-04-03T20:34:28;101694.41;;;12.88
60003;BMP280;46322;52.018;8.702;2023-04-03T20:39:28;101692.75;;;12.46
60003;BMP280;46322;52.018;8.702;2023-04-03T20:44:28;101696.84;;;11.68
60003;BMP280;46322;52.018;8.702;2023-04-03T20:49:29;101681.47;;;12.68
60003;BMP280;46322;52.018;8.702;2023-04-03T20:54:29;101683.25;;;12.26
60003;BMP280;46322;52.018;8.702;2023-04-03T20:59:29;101680.78;;;12.30
60003;BMP280;46322;52.018;8.702;2023-04-03T21:04:35;101680.28;;;12.88
60003;BMP280;46322;52.018;8.702;2023-04-03T21:20:13;101674.56;;;12.21
60003;BMP280;46322;52.018;8.702;2023-04-03T21:25:13;101664.31;;;12.60
60003;BMP280;46322;52.018;8.702;2023-04-03T21:30:13;101661.41;;;12.10
60003;BMP280;46322;52.018;8.702;2023-04-03T21:35:13;101656.56;;;11.99
60003;BMP280;46322;52.018;8.702;2023-04-03T21:40:14;101651.78;;;12.47
60003;BMP280;46322;52.018;8.702;2023-04-03T21:45:14;101645.94;;;12.45
60003;BMP280;46322;52.018;8.702;2023-04-03T21:50:14;101647.63;;;12.41
60003;BMP280;46322;52.018;8.702;2023-04-03T21:55:14;101647.44;;;12.51
60003;BMP280;46322;52.018;8.702;2023-04-03T22:00:14;101639.13;;;12.25
60003;BMP280;46322;52.018;8.702;2023-04-03T22:05:15;101635.59;;;12.30
60003;BMP280;46322;52.018;8.702;2023-04-03T22:10:15;101636.75;;;11.91
60003;BMP280;46322;52.018;8.702;2023-04-03T22:15:15;101633.91;;;12.01
60003;BMP280;46322;52.018;8.702;2023-04-03T22:20:15;101633.72;;;11.98
60003;BMP280;46322;52.018;8.702;2023-04-03T22:25:15;101635.19;;;11.71
60003;BMP280;46322;52.018;8.702;2023-04-03T22:30:15;101634.66;;;11.32
60003;BMP280;46322;52.018;8.702;2023-04-03T22:35:15;101638.22;;;10.98
60003;BMP280;46322;52.018;8.702;2023-04-03T22:40:16;101644.56;;;10.15
60003;BMP280;46322;52.018;8.702;2023-04-03T22:45:16;101632.00;;;11.50
60003;BMP280;46322;52.018;8.702;2023-04-03T22:50:16;101634.63;;;11.56
60003;BMP280;46322;52.018;8.702;2023-04-03T22:55:16;101638.91;;;11.33
60003;BMP280;46322;52.018;8.702;2023-04-03T23:00:16;101646.00;;;11.37
60003;BMP280;46322;52.018;8.702;2023-04-03T23:05:17;101639.53;;;11.01
60003;BMP280;46322;52.018;8.702;2023-04-03T23:10:17;101641.59;;;10.80
60003;BMP280;46322;52.018;8.702;2023-04-03T23:15:17;101649.09;;;10.78
60003;BMP280;46322;52.018;8.702;2023-04-03T23:20:17;101641.69;;;10.12
60003;BMP280;46322;52.018;8.702;2023-04-03T23:25:17;101650.72;;;10.98
60003;BMP280;46322;52.018;8.702;2023-04-03T23:30:18;101645.13;;;10.99
60003;BMP280;46322;52.018;8.702;2023-04-03T23:35:18;101652.84;;;10.96
60003;BMP280;46322;52.018;8.702;2023-04-03T23:40:18;101645.53;;;10.87
60003;BMP280;46322;52.018;8.702;2023-04-03T23:45:18;101654.19;;;10.69
60003;BMP280;46322;52.018;8.702;2023-04-03T23:50:18;101654.13;;;10.74
60003;BMP280;46322;52.018;8.702;2023-04-03T23:55:19;101654.81;;;10.61
